Fernwood, Mississippi
Current Conditions -  °F | °C
As of 12:53 PM on Friday 24 Oct 2014 (Local Time) from KMCB Reporting Station
Clear Clear  
Wind Chill: 71°   Ceiling: Unl
Heat Index: 71°   Visibility: 10mi
Dew Point: 43°   Wind: 9mph
Humidity: 36%   Direction: 340°NNW
Pressure: 30.11"   Gusts: NA
Location:  31.19°N, 90.45°W
Report Text: KMCB 241753Z AUTO 34008KT 10SM CLR 22/06 A3011 RMK AO2 SLP192 T02170061 10217 20089 58011
Loading
Personal Weather Stations






























Interactive Weather Map
Tropical Storm Tracking
New forecast layout! Learn more

10-Day Weather Forecast

Advertisements
Track Severe Weather on mobile